Terminal Aerodrome Forecast
Issued by NWS Sterling, VA

Current Version | Previous Version | Graphics & Text | Print | Product List | Glossary On
Versions: 1 2 3 4 5 6 7 8 9 10 11 12 13 14 15 16 17 18 19 20 21 22 23 24
736
FTUS41 KLWX 191502 AAA
TAFIAD
TAF AMD
KIAD 191502Z 1915/2018 19009KT P6SM OVC020
     FM192000 19009KT P6SM OVC015
     FM200300 19007KT P6SM SCT008 BKN035 WS020/22040KT
     FM201200 20008KT P6SM BKN250=

USA.gov is the U.S. government's official web portal to all federal, state and local government web resources and services.